SBOSBO BOM / VABB
Speedbird OnlineSpeedbird Online BOM / VABB

Chhatrapati Shivaji International Airport
12:33 28°C

Location Mumbai, India
Latitude: 19.0886993408
Longitude: 72.8678970337
Web Airport Website | Wikipedia
Altitude 12 Meter / 39 Feet
Distance 7,173 KM / 4,457 Miles
from London.
Time Zone UTC +5.5 hours (Asia/Calcutta)
Codes IATA: BOM
ICAO: VABB
Currency £1 equals INR 100.92
Runways
RunwayLength (m)Surface
093448Asphalt
142871Asphalt
273448Asphalt
322871Asphalt
Radio
TypeDescriptionFrequency
ACCMUMBAI120.5
APPMUMBAI APP127.9
ATISMUMBAI ATIS126.4
CLDMUMBAI CLR DELIVERY121.85
GNDMUMBAI GND121.9
RDOMUMBAI RDO1008.4
RDRRDR119.3
TWRMUMBAI TWR118.1
Live ATC
METAR VABB 290630Z 24004KT 2200 HZ NSC 28/20 Q1011 NOSIG
TAF TAF VABB 290500Z 2906/2915 27008KT 3000 HZ FU FEW020
Weather As Of 29 Jan 2023 12:33
Description Haze
Wind 15 km/h from North-West (300°)
Cloud Cover 25%
Precipitation Rain: none, Snow: none
Sunrise 07:13
Sunset 18:29
Lounges Adani Lounge – East Wing, Terminal 2
MALS Premium Lounge , Terminal 2
Rotations During the last 90 days there were
224 flights from LHR
222 flights to LHR



Support Speedbird Online

© 2017-2023 Speedbird Online